sensor_id;sensor_type;location;lat;lon;timestamp;pressure;altitude;pressure_sealevel;temperature;humidity
48606;BME280;8482;54.396;18.590;2023-08-07T00:00:45;99342.31;;;18.29;80.50
48606;BME280;8482;54.396;18.590;2023-08-07T00:03:11;99346.44;;;18.25;80.82
48606;BME280;8482;54.396;18.590;2023-08-07T00:05:37;99341.47;;;18.22;80.73
48606;BME280;8482;54.396;18.590;2023-08-07T00:08:03;99346.81;;;18.15;80.39
48606;BME280;8482;54.396;18.590;2023-08-07T00:10:29;99348.47;;;18.16;80.19
48606;BME280;8482;54.396;18.590;2023-08-07T00:12:55;99339.81;;;18.14;80.42
48606;BME280;8482;54.396;18.590;2023-08-07T00:15:21;99342.91;;;18.11;80.62
48606;BME280;8482;54.396;18.590;2023-08-07T00:17:47;99343.97;;;18.10;80.65
48606;BME280;8482;54.396;18.590;2023-08-07T00:20:13;99345.16;;;18.07;80.23
48606;BME280;8482;54.396;18.590;2023-08-07T00:22:39;99346.00;;;18.08;80.15
48606;BME280;8482;54.396;18.590;2023-08-07T00:25:05;99339.38;;;18.04;79.29
48606;BME280;8482;54.396;18.590;2023-08-07T00:27:30;99348.28;;;18.04;79.19
48606;BME280;8482;54.396;18.590;2023-08-07T00:29:56;99346.81;;;18.02;78.56
48606;BME280;8482;54.396;18.590;2023-08-07T00:32:22;99340.59;;;17.95;78.32
48606;BME280;8482;54.396;18.590;2023-08-07T00:34:48;99358.13;;;17.90;78.21
48606;BME280;8482;54.396;18.590;2023-08-07T00:37:14;99342.84;;;17.84;78.08
48606;BME280;8482;54.396;18.590;2023-08-07T00:39:40;99349.66;;;17.87;77.58
48606;BME280;8482;54.396;18.590;2023-08-07T00:42:06;99350.47;;;17.81;77.53
48606;BME280;8482;54.396;18.590;2023-08-07T00:44:32;99350.47;;;17.81;77.36
48606;BME280;8482;54.396;18.590;2023-08-07T00:46:58;99350.03;;;17.77;77.54
48606;BME280;8482;54.396;18.590;2023-08-07T00:49:24;99349.25;;;17.76;77.22
48606;BME280;8482;54.396;18.590;2023-08-07T00:51:50;99345.09;;;17.74;77.30
48606;BME280;8482;54.396;18.590;2023-08-07T00:54:19;99342.38;;;17.67;77.61
48606;BME280;8482;54.396;18.590;2023-08-07T00:56:46;99339.69;;;17.67;78.04
48606;BME280;8482;54.396;18.590;2023-08-07T00:59:15;99336.44;;;17.65;78.27
48606;BME280;8482;54.396;18.590;2023-08-07T01:01:41;99319.28;;;17.59;78.39
48606;BME280;8482;54.396;18.590;2023-08-07T01:04:07;99319.47;;;17.58;78.28
48606;BME280;8482;54.396;18.590;2023-08-07T01:06:33;99317.00;;;17.56;77.92
48606;BME280;8482;54.396;18.590;2023-08-07T01:08:59;99327.91;;;17.55;78.01
48606;BME280;8482;54.396;18.590;2023-08-07T01:11:48;99331.03;;;17.52;77.95
48606;BME280;8482;54.396;18.590;2023-08-07T01:14:51;99327.28;;;17.46;78.25
48606;BME280;8482;54.396;18.590;2023-08-07T01:17:22;99333.69;;;17.45;78.40
48606;BME280;8482;54.396;18.590;2023-08-07T01:19:51;99320.69;;;17.42;78.30
48606;BME280;8482;54.396;18.590;2023-08-07T01:22:18;99323.34;;;17.42;78.17
48606;BME280;8482;54.396;18.590;2023-08-07T01:24:49;99323.75;;;17.39;78.17
48606;BME280;8482;54.396;18.590;2023-08-07T01:35:06;99294.25;;;17.32;78.68
48606;BME280;8482;54.396;18.590;2023-08-07T01:37:40;99300.44;;;17.33;78.38
48606;BME280;8482;54.396;18.590;2023-08-07T01:40:08;99290.94;;;17.30;78.30
48606;BME280;8482;54.396;18.590;2023-08-07T01:42:36;99304.72;;;17.27;78.52
48606;BME280;8482;54.396;18.590;2023-08-07T01:45:04;99290.28;;;17.21;78.57
48606;BME280;8482;54.396;18.590;2023-08-07T01:47:30;99283.31;;;17.20;78.52
48606;BME280;8482;54.396;18.590;2023-08-07T01:49:56;99287.81;;;17.20;78.45
48606;BME280;8482;54.396;18.590;2023-08-07T01:52:22;99287.00;;;17.19;78.40
48606;BME280;8482;54.396;18.590;2023-08-07T01:54:48;99277.31;;;17.18;78.55
48606;BME280;8482;54.396;18.590;2023-08-07T01:57:14;99293.81;;;17.22;78.54
48606;BME280;8482;54.396;18.590;2023-08-07T01:59:40;99295.84;;;17.20;78.74
48606;BME280;8482;54.396;18.590;2023-08-07T02:02:06;99300.41;;;17.19;79.01
48606;BME280;8482;54.396;18.590;2023-08-07T02:04:32;99300.41;;;17.19;78.78
48606;BME280;8482;54.396;18.590;2023-08-07T02:06:58;99296.69;;;17.20;78.80
48606;BME280;8482;54.396;18.590;2023-08-07T02:09:23;99301.22;;;17.20;78.71
48606;BME280;8482;54.396;18.590;2023-08-07T02:11:49;99286.56;;;17.15;78.51
48606;BME280;8482;54.396;18.590;2023-08-07T02:14:15;99274.63;;;17.18;78.61
48606;BME280;8482;54.396;18.590;2023-08-07T02:16:41;99270.69;;;17.14;78.30
48606;BME280;8482;54.396;18.590;2023-08-07T02:19:07;99271.50;;;17.14;78.39
48606;BME280;8482;54.396;18.590;2023-08-07T02:21:33;99272.13;;;17.16;78.57
48606;BME280;8482;54.396;18.590;2023-08-07T02:23:58;99265.13;;;17.15;78.53
48606;BME280;8482;54.396;18.590;2023-08-07T02:26:24;99267.19;;;17.13;78.68
48606;BME280;8482;54.396;18.590;2023-08-07T02:28:50;99271.09;;;17.11;78.95
48606;BME280;8482;54.396;18.590;2023-08-07T02:31:16;99280.34;;;17.08;79.40
48606;BME280;8482;54.396;18.590;2023-08-07T02:33:42;99279.72;;;17.06;79.77
48606;BME280;8482;54.396;18.590;2023-08-07T02:36:08;99281.59;;;17.06;79.93
48606;BME280;8482;54.396;18.590;2023-08-07T02:38:33;99280.56;;;17.07;80.23
48606;BME280;8482;54.396;18.590;2023-08-07T02:40:59;99284.88;;;17.08;80.33
48606;BME280;8482;54.396;18.590;2023-08-07T02:43:25;99285.28;;;17.05;80.46
48606;BME280;8482;54.396;18.590;2023-08-07T02:45:54;99289.22;;;17.09;80.75
48606;BME280;8482;54.396;18.590;2023-08-07T02:48:20;99299.13;;;17.08;80.83
48606;BME280;8482;54.396;18.590;2023-08-07T02:50:46;99297.84;;;17.04;80.73
48606;BME280;8482;54.396;18.590;2023-08-07T02:53:12;99314.34;;;17.08;80.78
48606;BME280;8482;54.396;18.590;2023-08-07T02:55:38;99300.78;;;17.09;80.71
48606;BME280;8482;54.396;18.590;2023-08-07T02:58:03;99296.66;;;17.07;80.59
48606;BME280;8482;54.396;18.590;2023-08-07T03:00:29;99301.78;;;17.08;80.67
48606;BME280;8482;54.396;18.590;2023-08-07T03:02:55;99293.75;;;17.08;80.83
48606;BME280;8482;54.396;18.590;2023-08-07T03:05:21;99286.09;;;17.05;80.90
48606;BME280;8482;54.396;18.590;2023-08-07T03:07:46;99311.47;;;17.09;80.77
48606;BME280;8482;54.396;18.590;2023-08-07T03:10:12;99314.16;;;17.09;80.76
48606;BME280;8482;54.396;18.590;2023-08-07T03:12:38;99330.22;;;17.09;80.89
48606;BME280;8482;54.396;18.590;2023-08-07T03:15:05;99323.44;;;17.07;80.64
48606;BME280;8482;54.396;18.590;2023-08-07T03:17:32;99313.13;;;17.10;80.53
48606;BME280;8482;54.396;18.590;2023-08-07T03:19:57;99300.78;;;17.09;80.60
48606;BME280;8482;54.396;18.590;2023-08-07T03:22:23;99305.72;;;17.12;80.65
48606;BME280;8482;54.396;18.590;2023-08-07T03:24:49;99310.06;;;17.13;80.34
48606;BME280;8482;54.396;18.590;2023-08-07T03:27:15;99297.47;;;17.14;80.09
48606;BME280;8482;54.396;18.590;2023-08-07T03:29:41;99279.34;;;17.09;80.06
48606;BME280;8482;54.396;18.590;2023-08-07T03:32:08;99292.13;;;17.14;79.86
48606;BME280;8482;54.396;18.590;2023-08-07T03:34:35;99292.13;;;17.14;79.82
48606;BME280;8482;54.396;18.590;2023-08-07T03:37:00;99305.53;;;17.14;79.72
48606;BME280;8482;54.396;18.590;2023-08-07T03:39:26;99291.72;;;17.10;79.17
48606;BME280;8482;54.396;18.590;2023-08-07T03:41:52;99316.25;;;17.14;79.21
48606;BME280;8482;54.396;18.590;2023-08-07T03:44:18;99332.94;;;17.16;79.37
48606;BME280;8482;54.396;18.590;2023-08-07T03:46:43;99360.75;;;17.15;79.39
48606;BME280;8482;54.396;18.590;2023-08-07T03:49:09;99361.78;;;17.14;79.11
48606;BME280;8482;54.396;18.590;2023-08-07T03:51:35;99372.50;;;17.14;79.43
48606;BME280;8482;54.396;18.590;2023-08-07T03:54:01;99365.69;;;17.11;79.14
48606;BME280;8482;54.396;18.590;2023-08-07T03:56:27;99356.22;;;17.15;78.75
48606;BME280;8482;54.396;18.590;2023-08-07T03:58:53;99361.19;;;17.19;77.39
48606;BME280;8482;54.396;18.590;2023-08-07T04:01:19;99349.66;;;17.18;77.57
48606;BME280;8482;54.396;18.590;2023-08-07T04:03:47;99352.72;;;17.15;77.64
48606;BME280;8482;54.396;18.590;2023-08-07T04:06:13;99347.56;;;17.13;77.43
48606;BME280;8482;54.396;18.590;2023-08-07T04:08:44;99342.22;;;17.13;77.08
48606;BME280;8482;54.396;18.590;2023-08-07T04:11:10;99328.81;;;17.13;76.95
48606;BME280;8482;54.396;18.590;2023-08-07T04:13:36;99345.28;;;17.10;76.70
48606;BME280;8482;54.396;18.590;2023-08-07T04:16:02;99325.31;;;17.13;76.31
48606;BME280;8482;54.396;18.590;2023-08-07T04:18:33;99323.84;;;17.10;76.23
48606;BME280;8482;54.396;18.590;2023-08-07T04:20:59;99318.06;;;17.07;75.92
48606;BME280;8482;54.396;18.590;2023-08-07T04:23:25;99333.94;;;17.08;76.01
48606;BME280;8482;54.396;18.590;2023-08-07T04:25:52;99340.72;;;17.04;76.31
48606;BME280;8482;54.396;18.590;2023-08-07T04:28:19;99337.00;;;17.05;75.95
48606;BME280;8482;54.396;18.590;2023-08-07T04:30:49;99337.59;;;17.00;75.95
48606;BME280;8482;54.396;18.590;2023-08-07T04:33:15;99337.19;;;16.97;75.98
48606;BME280;8482;54.396;18.590;2023-08-07T04:35:41;99330.59;;;16.99;76.03
48606;BME280;8482;54.396;18.590;2023-08-07T04:38:06;99335.31;;;16.97;76.03
48606;BME280;8482;54.396;18.590;2023-08-07T04:40:32;99362.09;;;16.97;76.16
48606;BME280;8482;54.396;18.590;2023-08-07T04:42:58;99359.25;;;16.99;75.50
48606;BME280;8482;54.396;18.590;2023-08-07T04:45:24;99353.81;;;16.92;75.59
48606;BME280;8482;54.396;18.590;2023-08-07T04:47:50;99364.31;;;16.94;75.42
48606;BME280;8482;54.396;18.590;2023-08-07T04:50:16;99368.09;;;16.99;74.32
48606;BME280;8482;54.396;18.590;2023-08-07T04:52:42;99373.03;;;16.96;74.59
48606;BME280;8482;54.396;18.590;2023-08-07T04:55:08;99369.69;;;16.94;74.93
48606;BME280;8482;54.396;18.590;2023-08-07T04:57:34;99381.41;;;16.93;74.92
48606;BME280;8482;54.396;18.590;2023-08-07T05:00:00;99375.19;;;16.85;74.51
48606;BME280;8482;54.396;18.590;2023-08-07T05:02:25;99371.50;;;16.87;74.87
48606;BME280;8482;54.396;18.590;2023-08-07T05:04:51;99354.59;;;16.86;74.58
48606;BME280;8482;54.396;18.590;2023-08-07T05:07:17;99361.41;;;16.89;74.76
48606;BME280;8482;54.396;18.590;2023-08-07T05:09:43;99369.63;;;16.87;74.55
48606;BME280;8482;54.396;18.590;2023-08-07T05:12:09;99398.72;;;16.90;74.25
48606;BME280;8482;54.396;18.590;2023-08-07T05:14:35;99383.03;;;16.87;74.59
48606;BME280;8482;54.396;18.590;2023-08-07T05:17:00;99382.81;;;16.89;74.62
48606;BME280;8482;54.396;18.590;2023-08-07T05:19:26;99381.00;;;16.89;74.59
48606;BME280;8482;54.396;18.590;2023-08-07T05:21:52;99374.78;;;16.89;74.62
48606;BME280;8482;54.396;18.590;2023-08-07T05:24:18;99367.59;;;16.89;74.68
48606;BME280;8482;54.396;18.590;2023-08-07T05:26:44;99374.84;;;16.95;74.71
48606;BME280;8482;54.396;18.590;2023-08-07T05:29:10;99365.41;;;16.99;74.44
48606;BME280;8482;54.396;18.590;2023-08-07T05:31:36;99355.53;;;17.00;74.14
48606;BME280;8482;54.396;18.590;2023-08-07T05:34:03;99359.84;;;17.01;74.27
48606;BME280;8482;54.396;18.590;2023-08-07T05:36:29;99353.69;;;17.00;74.03
48606;BME280;8482;54.396;18.590;2023-08-07T05:38:57;99354.50;;;17.01;74.02
48606;BME280;8482;54.396;18.590;2023-08-07T05:41:23;99337.41;;;17.02;73.87
48606;BME280;8482;54.396;18.590;2023-08-07T05:43:48;99356.16;;;17.02;73.74
48606;BME280;8482;54.396;18.590;2023-08-07T05:46:14;99362.97;;;17.05;73.36
48606;BME280;8482;54.396;18.590;2023-08-07T05:48:40;99352.28;;;17.05;72.93
48606;BME280;8482;54.396;18.590;2023-08-07T05:51:06;99347.94;;;17.04;73.14
48606;BME280;8482;54.396;18.590;2023-08-07T05:53:35;99351.25;;;17.06;73.36
48606;BME280;8482;54.396;18.590;2023-08-07T05:56:00;99364.19;;;17.02;73.16
48606;BME280;8482;54.396;18.590;2023-08-07T05:58:26;99365.44;;;17.06;73.03
48606;BME280;8482;54.396;18.590;2023-08-07T06:00:52;99358.88;;;17.09;72.70
48606;BME280;8482;54.396;18.590;2023-08-07T06:03:18;99368.00;;;17.21;71.47
48606;BME280;8482;54.396;18.590;2023-08-07T06:05:44;99370.47;;;17.16;71.57
48606;BME280;8482;54.396;18.590;2023-08-07T06:08:10;99372.72;;;17.12;71.89
48606;BME280;8482;54.396;18.590;2023-08-07T06:10:35;99388.78;;;17.12;72.13
48606;BME280;8482;54.396;18.590;2023-08-07T06:13:01;99375.78;;;17.09;72.21
48606;BME280;8482;54.396;18.590;2023-08-07T06:15:31;99380.94;;;17.11;72.45
48606;BME280;8482;54.396;18.590;2023-08-07T06:17:57;99411.88;;;17.13;72.39
48606;BME280;8482;54.396;18.590;2023-08-07T06:20:23;99383.44;;;17.12;72.00
48606;BME280;8482;54.396;18.590;2023-08-07T06:22:49;99388.56;;;17.14;71.98
48606;BME280;8482;54.396;18.590;2023-08-07T06:25:15;99382.63;;;17.19;71.62
48606;BME280;8482;54.396;18.590;2023-08-07T06:27:40;99359.91;;;17.14;71.59
48606;BME280;8482;54.396;18.590;2023-08-07T06:30:07;99367.56;;;17.18;71.51
48606;BME280;8482;54.396;18.590;2023-08-07T06:32:33;99380.97;;;17.18;71.58
48606;BME280;8482;54.396;18.590;2023-08-07T06:34:59;99391.69;;;17.18;71.62
48606;BME280;8482;54.396;18.590;2023-08-07T06:37:25;99384.28;;;17.20;71.26
48606;BME280;8482;54.396;18.590;2023-08-07T06:39:51;99393.97;;;17.21;71.40
48606;BME280;8482;54.396;18.590;2023-08-07T06:42:16;99394.59;;;17.23;71.52
48606;BME280;8482;54.396;18.590;2023-08-07T06:44:42;99386.56;;;17.23;71.69
48606;BME280;8482;54.396;18.590;2023-08-07T06:47:08;99398.72;;;17.25;72.00
48606;BME280;8482;54.396;18.590;2023-08-07T06:49:35;99394.81;;;17.28;72.05
48606;BME280;8482;54.396;18.590;2023-08-07T06:52:00;99403.31;;;17.31;71.34
48606;BME280;8482;54.396;18.590;2023-08-07T06:54:27;99406.59;;;17.34;71.32
48606;BME280;8482;54.396;18.590;2023-08-07T06:56:53;99432.00;;;17.38;70.11
48606;BME280;8482;54.396;18.590;2023-08-07T06:59:19;99404.13;;;17.32;70.43
48606;BME280;8482;54.396;18.590;2023-08-07T07:01:44;99435.47;;;17.31;70.70
48606;BME280;8482;54.396;18.590;2023-08-07T07:04:10;99426.00;;;17.36;70.54
48606;BME280;8482;54.396;18.590;2023-08-07T07:06:37;99429.50;;;17.36;70.29
48606;BME280;8482;54.396;18.590;2023-08-07T07:09:03;99449.31;;;17.35;70.74
48606;BME280;8482;54.396;18.590;2023-08-07T07:11:29;99423.09;;;17.30;71.06
48606;BME280;8482;54.396;18.590;2023-08-07T07:13:55;99446.63;;;17.35;71.60
48606;BME280;8482;54.396;18.590;2023-08-07T07:16:21;99442.53;;;17.39;71.10
48606;BME280;8482;54.396;18.590;2023-08-07T07:18:49;99412.00;;;17.40;70.26
48606;BME280;8482;54.396;18.590;2023-08-07T07:21:15;99426.66;;;17.44;70.19
48606;BME280;8482;54.396;18.590;2023-08-07T07:23:41;99409.31;;;17.40;69.91
48606;BME280;8482;54.396;18.590;2023-08-07T07:26:07;99415.94;;;17.44;69.82
48606;BME280;8482;54.396;18.590;2023-08-07T07:28:33;99421.94;;;17.46;70.25
48606;BME280;8482;54.396;18.590;2023-08-07T07:30:58;99427.28;;;17.46;70.67
48606;BME280;8482;54.396;18.590;2023-08-07T07:33:24;99417.19;;;17.49;70.58
48606;BME280;8482;54.396;18.590;2023-08-07T07:35:51;99429.19;;;17.53;70.19
48606;BME280;8482;54.396;18.590;2023-08-07T07:38:17;99429.00;;;17.61;68.99
48606;BME280;8482;54.396;18.590;2023-08-07T07:40:45;99428.78;;;17.62;68.51
48606;BME280;8482;54.396;18.590;2023-08-07T07:43:11;99422.59;;;17.55;68.76
48606;BME280;8482;54.396;18.590;2023-08-07T07:45:37;99405.66;;;17.55;68.77
48606;BME280;8482;54.396;18.590;2023-08-07T07:48:03;99416.44;;;17.68;68.29
48606;BME280;8482;54.396;18.590;2023-08-07T07:50:29;99409.84;;;17.64;68.89
48606;BME280;8482;54.396;18.590;2023-08-07T07:52:55;99437.28;;;17.66;69.29
48606;BME280;8482;54.396;18.590;2023-08-07T07:55:21;99429.66;;;17.70;68.78
48606;BME280;8482;54.396;18.590;2023-08-07T07:57:47;99427.41;;;17.73;68.19
48606;BME280;8482;54.396;18.590;2023-08-07T08:00:13;99423.28;;;17.71;68.82
48606;BME280;8482;54.396;18.590;2023-08-07T08:02:42;99446.81;;;17.75;68.45
48606;BME280;8482;54.396;18.590;2023-08-07T08:05:09;99427.66;;;17.79;67.65
48606;BME280;8482;54.396;18.590;2023-08-07T08:07:38;99472.41;;;17.85;67.30
48606;BME280;8482;54.396;18.590;2023-08-07T08:10:08;99479.84;;;17.83;67.43
48606;BME280;8482;54.396;18.590;2023-08-07T08:12:35;99427.84;;;17.84;67.39
48606;BME280;8482;54.396;18.590;2023-08-07T08:15:03;99437.53;;;17.85;67.85
48606;BME280;8482;54.396;18.590;2023-08-07T08:17:29;99443.13;;;17.83;67.34
48606;BME280;8482;54.396;18.590;2023-08-07T08:19:54;99443.75;;;17.85;67.61
48606;BME280;8482;54.396;18.590;2023-08-07T08:22:20;99458.81;;;17.86;67.57
48606;BME280;8482;54.396;18.590;2023-08-07T08:24:46;99478.44;;;17.93;67.30
48606;BME280;8482;54.396;18.590;2023-08-07T08:27:13;99437.56;;;17.91;67.05
48606;BME280;8482;54.396;18.590;2023-08-07T08:29:40;99444.81;;;17.91;67.05
48606;BME280;8482;54.396;18.590;2023-08-07T08:32:07;99462.94;;;17.89;67.43
48606;BME280;8482;54.396;18.590;2023-08-07T08:34:32;99449.72;;;17.87;67.08
48606;BME280;8482;54.396;18.590;2023-08-07T08:36:58;99454.28;;;17.93;66.59
48606;BME280;8482;54.396;18.590;2023-08-07T08:39:24;99469.75;;;17.91;66.54
48606;BME280;8482;54.396;18.590;2023-08-07T08:41:50;99468.31;;;17.89;66.06
48606;BME280;8482;54.396;18.590;2023-08-07T08:44:19;99480.72;;;17.90;66.56
48606;BME280;8482;54.396;18.590;2023-08-07T08:46:49;99486.47;;;17.87;66.65
48606;BME280;8482;54.396;18.590;2023-08-07T08:49:25;99500.69;;;17.87;66.72
48606;BME280;8482;54.396;18.590;2023-08-07T08:51:53;99483.16;;;17.85;66.90
48606;BME280;8482;54.396;18.590;2023-08-07T08:54:20;99505.25;;;17.87;67.01
48606;BME280;8482;54.396;18.590;2023-08-07T08:56:47;99490.81;;;17.88;66.88
48606;BME280;8482;54.396;18.590;2023-08-07T08:59:13;99493.69;;;17.86;66.93
48606;BME280;8482;54.396;18.590;2023-08-07T09:01:39;99507.31;;;17.91;66.81
48606;BME280;8482;54.396;18.590;2023-08-07T09:04:05;99550.88;;;17.93;66.23
48606;BME280;8482;54.396;18.590;2023-08-07T09:06:32;99523.00;;;17.88;66.72
48606;BME280;8482;54.396;18.590;2023-08-07T09:09:00;99524.66;;;17.89;66.86
48606;BME280;8482;54.396;18.590;2023-08-07T09:11:27;99543.63;;;17.94;66.88
48606;BME280;8482;54.396;18.590;2023-08-07T09:13:55;99546.16;;;17.96;66.15
48606;BME280;8482;54.396;18.590;2023-08-07T09:16:23;99519.50;;;17.94;66.40
48606;BME280;8482;54.396;18.590;2023-08-07T09:18:51;99535.25;;;18.04;65.33
48606;BME280;8482;54.396;18.590;2023-08-07T09:21:17;99534.22;;;18.05;65.60
48606;BME280;8482;54.396;18.590;2023-08-07T09:23:44;99529.09;;;18.03;65.78
48606;BME280;8482;54.396;18.590;2023-08-07T09:26:10;99537.75;;;18.05;65.68
48606;BME280;8482;54.396;18.590;2023-08-07T09:28:36;99526.78;;;18.00;65.65
48606;BME280;8482;54.396;18.590;2023-08-07T09:31:06;99550.34;;;18.05;66.33
48606;BME280;8482;54.396;18.590;2023-08-07T09:33:33;99555.72;;;18.12;65.12
48606;BME280;8482;54.396;18.590;2023-08-07T09:36:01;99572.84;;;18.11;65.36
48606;BME280;8482;54.396;18.590;2023-08-07T09:38:31;99553.47;;;18.15;64.38
48606;BME280;8482;54.396;18.590;2023-08-07T09:40:59;99554.09;;;18.17;65.11
48606;BME280;8482;54.396;18.590;2023-08-07T09:43:25;99555.16;;;18.23;64.59
48606;BME280;8482;54.396;18.590;2023-08-07T09:45:51;99569.41;;;18.23;64.15
48606;BME280;8482;54.396;18.590;2023-08-07T09:48:24;99570.25;;;18.31;63.45
48606;BME280;8482;54.396;18.590;2023-08-07T09:50:51;99582.00;;;18.30;63.50
48606;BME280;8482;54.396;18.590;2023-08-07T09:53:17;99597.31;;;18.29;63.26
48606;BME280;8482;54.396;18.590;2023-08-07T09:55:43;99559.34;;;18.32;63.55
48606;BME280;8482;54.396;18.590;2023-08-07T09:58:12;99559.34;;;18.39;63.30
48606;BME280;8482;54.396;18.590;2023-08-07T10:00:40;99574.63;;;18.38;63.91
48606;BME280;8482;54.396;18.590;2023-08-07T10:03:08;99566.16;;;18.42;63.95
48606;BME280;8482;54.396;18.590;2023-08-07T10:05:34;99555.44;;;18.48;63.46
48606;BME280;8482;54.396;18.590;2023-08-07T10:08:00;99570.94;;;18.53;63.06
48606;BME280;8482;54.396;18.590;2023-08-07T10:10:28;99545.53;;;18.49;62.71
48606;BME280;8482;54.396;18.590;2023-08-07T10:12:54;99533.75;;;18.57;62.80
48606;BME280;8482;54.396;18.590;2023-08-07T10:15:21;99547.00;;;18.58;62.96
48606;BME280;8482;54.396;18.590;2023-08-07T10:17:47;99558.97;;;18.62;61.83
48606;BME280;8482;54.396;18.590;2023-08-07T10:20:13;99551.13;;;18.61;62.12
48606;BME280;8482;54.396;18.590;2023-08-07T10:22:40;99582.53;;;18.67;60.76
48606;BME280;8482;54.396;18.590;2023-08-07T10:25:07;99578.19;;;18.66;60.62
48606;BME280;8482;54.396;18.590;2023-08-07T10:27:37;99581.50;;;18.61;60.74
48606;BME280;8482;54.396;18.590;2023-08-07T10:30:07;99601.56;;;18.65;60.80
48606;BME280;8482;54.396;18.590;2023-08-07T10:32:36;99579.44;;;18.63;61.20
48606;BME280;8482;54.396;18.590;2023-08-07T10:35:05;99598.44;;;18.62;60.95
48606;BME280;8482;54.396;18.590;2023-08-07T10:37:42;99581.91;;;18.58;60.99
48606;BME280;8482;54.396;18.590;2023-08-07T10:40:10;99596.56;;;18.62;60.92
48606;BME280;8482;54.396;18.590;2023-08-07T10:42:55;99596.81;;;18.67;59.94
48606;BME280;8482;54.396;18.590;2023-08-07T10:45:24;99606.72;;;18.67;59.79
48606;BME280;8482;54.396;18.590;2023-08-07T10:48:11;99610.25;;;18.67;59.84
48606;BME280;8482;54.396;18.590;2023-08-07T10:50:57;99584.19;;;18.68;59.27
48606;BME280;8482;54.396;18.590;2023-08-07T10:53:35;99607.75;;;18.73;59.56
48606;BME280;8482;54.396;18.590;2023-08-07T10:56:08;99572.66;;;18.74;59.44
48606;BME280;8482;54.396;18.590;2023-08-07T10:58:40;99583.81;;;18.78;59.79
48606;BME280;8482;54.396;18.590;2023-08-07T11:03:43;99599.13;;;18.84;59.81
48606;BME280;8482;54.396;18.590;2023-08-07T11:06:12;99573.47;;;18.88;58.82
48606;BME280;8482;54.396;18.590;2023-08-07T11:08:38;99570.66;;;18.96;58.13
48606;BME280;8482;54.396;18.590;2023-08-07T11:11:05;99595.88;;;18.95;58.15
48606;BME280;8482;54.396;18.590;2023-08-07T11:13:35;99586.28;;;18.93;58.51
48606;BME280;8482;54.396;18.590;2023-08-07T11:16:05;99617.53;;;18.94;58.82
48606;BME280;8482;54.396;18.590;2023-08-07T11:18:32;99604.56;;;18.97;58.42
48606;BME280;8482;54.396;18.590;2023-08-07T11:20:58;99615.09;;;18.99;58.20
48606;BME280;8482;54.396;18.590;2023-08-07T11:23:28;99613.44;;;18.98;58.48
48606;BME280;8482;54.396;18.590;2023-08-07T11:25:55;99633.69;;;19.01;57.64
48606;BME280;8482;54.396;18.590;2023-08-07T11:28:22;99631.44;;;19.04;57.55
48606;BME280;8482;54.396;18.590;2023-08-07T11:30:52;99631.00;;;19.07;57.52
48606;BME280;8482;54.396;18.590;2023-08-07T11:33:20;99655.41;;;19.06;57.29
48606;BME280;8482;54.396;18.590;2023-08-07T11:35:48;99626.25;;;19.03;57.27
48606;BME280;8482;54.396;18.590;2023-08-07T11:38:33;99637.00;;;19.03;57.73
48606;BME280;8482;54.396;18.590;2023-08-07T11:41:04;99688.69;;;19.05;57.46
48606;BME280;8482;54.396;18.590;2023-08-07T11:43:32;99637.63;;;19.05;57.06
48606;BME280;8482;54.396;18.590;2023-08-07T11:46:02;99652.72;;;19.06;57.25
48606;BME280;8482;54.396;18.590;2023-08-07T11:48:30;99666.16;;;19.06;57.05
48606;BME280;8482;54.396;18.590;2023-08-07T11:50:58;99642.59;;;19.08;57.27
48606;BME280;8482;54.396;18.590;2023-08-07T11:53:30;99657.88;;;19.07;56.94
48606;BME280;8482;54.396;18.590;2023-08-07T11:58:27;99631.00;;;19.07;57.49
48606;BME280;8482;54.396;18.590;2023-08-07T12:00:53;99633.91;;;19.06;57.71
48606;BME280;8482;54.396;18.590;2023-08-07T12:03:32;99638.66;;;19.17;57.04
48606;BME280;8482;54.396;18.590;2023-08-07T12:06:03;99628.31;;;19.14;57.44
48606;BME280;8482;54.396;18.590;2023-08-07T12:08:38;99623.78;;;19.14;57.66
48606;BME280;8482;54.396;18.590;2023-08-07T12:11:12;99629.34;;;19.20;57.94
48606;BME280;8482;54.396;18.590;2023-08-07T12:13:43;99620.88;;;19.23;57.47
48606;BME280;8482;54.396;18.590;2023-08-07T12:16:11;99634.97;;;19.25;57.71
48606;BME280;8482;54.396;18.590;2023-08-07T12:18:51;99651.91;;;19.25;57.30
48606;BME280;8482;54.396;18.590;2023-08-07T12:21:21;99639.31;;;19.33;57.29
48606;BME280;8482;54.396;18.590;2023-08-07T12:23:48;99636.00;;;19.30;56.54
48606;BME280;8482;54.396;18.590;2023-08-07T12:26:16;99633.69;;;19.21;57.09
48606;BME280;8482;54.396;18.590;2023-08-07T12:28:42;99627.13;;;19.23;57.18
48606;BME280;8482;54.396;18.590;2023-08-07T12:31:08;99637.03;;;19.23;57.67
48606;BME280;8482;54.396;18.590;2023-08-07T12:33:34;99644.28;;;19.22;58.19
48606;BME280;8482;54.396;18.590;2023-08-07T12:36:01;99693.06;;;19.26;57.48
48606;BME280;8482;54.396;18.590;2023-08-07T12:38:28;99720.19;;;19.31;57.04
48606;BME280;8482;54.396;18.590;2023-08-07T12:40:54;99683.75;;;19.28;56.34
48606;BME280;8482;54.396;18.590;2023-08-07T12:43:20;99661.03;;;19.24;56.42
48606;BME280;8482;54.396;18.590;2023-08-07T12:45:46;99663.88;;;19.16;56.91
48606;BME280;8482;54.396;18.590;2023-08-07T12:48:13;99642.78;;;19.13;57.47
48606;BME280;8482;54.396;18.590;2023-08-07T12:50:39;99638.03;;;19.15;57.74
48606;BME280;8482;54.396;18.590;2023-08-07T12:53:07;99618.81;;;19.11;57.45
48606;BME280;8482;54.396;18.590;2023-08-07T12:55:33;99636.19;;;19.09;57.45
48606;BME280;8482;54.396;18.590;2023-08-07T12:57:59;99638.03;;;19.08;57.65
48606;BME280;8482;54.396;18.590;2023-08-07T13:00:25;99655.63;;;19.04;57.25
48606;BME280;8482;54.396;18.590;2023-08-07T13:02:53;99641.31;;;18.97;57.51
48606;BME280;8482;54.396;18.590;2023-08-07T13:05:21;99662.00;;;18.96;57.91
48606;BME280;8482;54.396;18.590;2023-08-07T13:07:48;99683.50;;;18.96;57.84
48606;BME280;8482;54.396;18.590;2023-08-07T13:10:16;99674.41;;;18.97;57.72
48606;BME280;8482;54.396;18.590;2023-08-07T13:12:45;99673.78;;;18.95;57.66